Time,TemperatureF,DewpointF,PressureIn,WindDirection,WindDirectionDegrees,WindSpeedMPH,WindSpeedGustMPH,Humidity,HourlyPrecipIn,Conditions,Clouds,dailyrainin,SoftwareType,DateUTC
2013-11-11 00:08:00,48.2,36.0,30.31,South,190,2.0,4.0,62,0.00,,,0.00,weatherlink.com 1.10,2013-11-11 06:08:00,
2013-11-11 00:23:00,48.7,36.0,30.30,South,184,4.0,6.0,61,0.00,,,0.00,weatherlink.com 1.10,2013-11-11 06:23:00,
2013-11-11 00:38:00,48.8,36.0,30.31,South,190,2.0,6.0,62,0.00,,,0.00,weatherlink.com 1.10,2013-11-11 06:38:00,
2013-11-11 00:53:00,48.4,36.0,30.30,South,187,1.0,4.0,63,0.00,,,0.00,weatherlink.com 1.10,2013-11-11 06:53:00,
2013-11-11 01:08:00,48.2,36.0,30.30,South,186,1.0,3.0,64,0.00,,,0.00,weatherlink.com 1.10,2013-11-11 07:08:00,
2013-11-11 01:23:00,48.0,37.0,30.30,South,186,0.0,2.0,65,0.00,,,0.00,weatherlink.com 1.10,2013-11-11 07:23:00,
2013-11-11 01:38:00,47.6,37.0,30.30,South,185,0.0,1.0,66,0.00,,,0.00,weatherlink.com 1.10,2013-11-11 07:38:00,
2013-11-11 01:53:00,47.4,37.0,30.30,South,185,3.0,4.0,67,0.00,,,0.00,weatherlink.com 1.10,2013-11-11 07:53:00,
2013-11-11 02:08:00,47.6,37.0,30.29,South,185,2.0,4.0,67,0.00,,,0.00,weatherlink.com 1.10,2013-11-11 08:08:00,
2013-11-11 02:23:00,47.7,37.0,30.29,South,179,0.0,4.0,67,0.00,,,0.00,weatherlink.com 1.10,2013-11-11 08:23:00,
2013-11-11 02:38:00,47.8,37.0,30.29,South,179,2.0,3.0,67,0.00,,,0.00,weatherlink.com 1.10,2013-11-11 08:38:00,
2013-11-11 02:53:00,47.9,37.0,30.29,South,180,2.0,4.0,67,0.00,,,0.00,weatherlink.com 1.10,2013-11-11 08:53:00,
2013-11-11 03:08:00,48.3,38.0,30.28,South,180,0.0,3.0,67,0.00,,,0.00,weatherlink.com 1.10,2013-11-11 09:08:00,
2013-11-11 03:23:00,47.9,38.0,30.28,South,180,1.0,3.0,69,0.00,,,0.00,weatherlink.com 1.10,2013-11-11 09:23:00,
2013-11-11 03:38:00,47.6,38.0,30.28,South,181,2.0,4.0,70,0.00,,,0.00,weatherlink.com 1.10,2013-11-11 09:38:00,
2013-11-11 03:53:00,46.4,38.0,30.28,South,183,2.0,4.0,73,0.00,,,0.00,weatherlink.com 1.10,2013-11-11 09:53:00,
2013-11-11 04:08:00,46.9,38.0,30.28,South,187,2.0,5.0,72,0.00,,,0.00,weatherlink.com 1.10,2013-11-11 10:08:00,
2013-11-11 04:23:00,47.4,39.0,30.28,South,185,2.0,5.0,72,0.00,,,0.00,weatherlink.com 1.10,2013-11-11 10:23:00,
2013-11-11 04:38:00,47.5,39.0,30.28,SSW,200,1.0,4.0,73,0.00,,,0.00,weatherlink.com 1.10,2013-11-11 10:38:00,
2013-11-11 04:53:00,48.1,40.0,30.28,SSW,194,4.0,4.0,73,0.00,,,0.00,weatherlink.com 1.10,2013-11-11 10:53:00,
2013-11-11 05:08:00,48.9,40.0,30.27,SSW,195,2.0,5.0,71,0.00,,,0.00,weatherlink.com 1.10,2013-11-11 11:08:00,
2013-11-11 05:23:00,48.7,40.0,30.27,South,190,4.0,6.0,71,0.00,,,0.00,weatherlink.com 1.10,2013-11-11 11:23:00,
2013-11-11 05:38:00,48.3,40.0,30.27,South,182,4.0,5.0,73,0.00,,,0.00,weatherlink.com 1.10,2013-11-11 11:38:00,
2013-11-11 05:53:00,48.4,40.0,30.26,SSE,167,1.0,6.0,73,0.00,,,0.00,weatherlink.com 1.10,2013-11-11 11:53:00,
2013-11-11 06:08:00,48.5,41.0,30.26,South,170,2.0,3.0,74,0.00,,,0.00,weatherlink.com 1.10,2013-11-11 12:08:00,
2013-11-11 06:23:00,49.0,41.0,30.27,SSW,194,1.0,7.0,73,0.00,,,0.00,weatherlink.com 1.10,2013-11-11 12:23:00,
2013-11-11 06:38:00,49.2,40.0,30.27,South,188,2.0,5.0,70,0.00,,,0.00,weatherlink.com 1.10,2013-11-11 12:38:00,
2013-11-11 06:53:00,49.6,40.0,30.27,South,188,3.0,6.0,70,0.00,,,0.00,weatherlink.com 1.10,2013-11-11 12:53:00,
2013-11-11 07:08:00,49.5,40.0,30.27,South,189,3.0,5.0,70,0.00,,,0.00,weatherlink.com 1.10,2013-11-11 13:08:00,
2013-11-11 07:23:00,49.2,41.0,30.28,South,190,2.0,6.0,72,0.00,,,0.00,weatherlink.com 1.10,2013-11-11 13:23:00,
2013-11-11 07:38:00,49.6,41.0,30.28,SSW,211,5.0,7.0,72,0.00,,,0.00,weatherlink.com 1.10,2013-11-11 13:38:00,
2013-11-11 07:53:00,50.1,42.0,30.28,SSW,205,2.0,5.0,74,0.00,,,0.00,weatherlink.com 1.10,2013-11-11 13:53:00,
2013-11-11 08:08:00,50.5,43.0,30.28,SSW,210,5.0,7.0,74,0.00,,,0.00,weatherlink.com 1.10,2013-11-11 14:08:00,
2013-11-11 08:23:00,51.1,43.0,30.28,West,272,2.0,8.0,74,0.00,,,0.00,weatherlink.com 1.10,2013-11-11 14:23:00,
2013-11-11 08:38:00,51.9,43.0,30.28,SSW,200,7.0,10.0,73,0.00,,,0.00,weatherlink.com 1.10,2013-11-11 14:38:00,
2013-11-11 08:53:00,52.4,44.0,30.29,WSW,247,3.0,11.0,73,0.00,,,0.00,weatherlink.com 1.10,2013-11-11 14:53:00,
2013-11-11 09:09:00,53.1,44.0,30.29,SW,222,6.0,13.0,72,0.00,,,0.00,weatherlink.com 1.10,2013-11-11 15:09:00,
2013-11-11 09:24:00,53.7,45.0,30.29,WSW,239,7.0,14.0,72,0.00,,,0.00,weatherlink.com 1.10,2013-11-11 15:24:00,
2013-11-11 09:39:00,54.2,45.0,30.28,SW,215,13.0,13.0,71,0.00,,,0.00,weatherlink.com 1.10,2013-11-11 15:39:00,
2013-11-11 09:54:00,54.2,45.0,30.28,SW,221,7.0,13.0,72,0.00,,,0.00,weatherlink.com 1.10,2013-11-11 15:54:00,
2013-11-11 10:09:00,54.6,46.0,30.28,WSW,257,4.0,14.0,72,0.00,,,0.00,weatherlink.com 1.10,2013-11-11 16:09:00,
2013-11-11 10:24:00,55.1,46.0,30.28,SSW,210,6.0,12.0,72,0.00,,,0.00,weatherlink.com 1.10,2013-11-11 16:24:00,
2013-11-11 10:39:00,55.3,46.0,30.28,SSW,212,3.0,10.0,72,0.00,,,0.00,weatherlink.com 1.10,2013-11-11 16:39:00,
2013-11-11 10:54:00,55.5,47.0,30.27,SW,233,5.0,11.0,72,0.00,,,0.00,weatherlink.com 1.10,2013-11-11 16:54:00,
2013-11-11 11:09:00,55.7,47.0,30.27,WSW,250,6.0,8.0,72,0.00,,,0.00,weatherlink.com 1.10,2013-11-11 17:09:00,
2013-11-11 11:24:00,56.3,47.0,30.27,SW,234,6.0,12.0,71,0.00,,,0.00,weatherlink.com 1.10,2013-11-11 17:24:00,
2013-11-11 11:39:00,57.1,47.0,30.26,SSW,202,6.0,10.0,70,0.00,,,0.00,weatherlink.com 1.10,2013-11-11 17:39:00,
2013-11-11 11:54:00,57.4,48.0,30.25,SSW,202,7.0,11.0,70,0.00,,,0.00,weatherlink.com 1.10,2013-11-11 17:54:00,
2013-11-11 12:09:00,58.0,49.0,30.24,SW,219,2.0,11.0,71,0.00,,,0.00,weatherlink.com 1.10,2013-11-11 18:09:00,
2013-11-11 12:24:00,59.1,48.0,30.23,WSW,238,5.0,10.0,68,0.00,,,0.00,weatherlink.com 1.10,2013-11-11 18:24:00,
2013-11-11 12:39:00,59.5,49.0,30.22,SSW,197,2.0,15.0,68,0.00,,,0.00,weatherlink.com 1.10,2013-11-11 18:39:00,
2013-11-11 12:54:00,59.8,49.0,30.22,West,259,8.0,10.0,67,0.00,,,0.00,weatherlink.com 1.10,2013-11-11 18:54:00,
2013-11-11 13:09:00,59.6,49.0,30.21,SW,230,10.0,13.0,67,0.00,,,0.00,weatherlink.com 1.10,2013-11-11 19:09:00,
2013-11-11 13:24:00,59.4,48.0,30.21,SW,221,3.0,12.0,67,0.00,,,0.00,weatherlink.com 1.10,2013-11-11 19:24:00,
2013-11-11 13:39:00,59.3,48.0,30.21,SW,230,8.0,13.0,67,0.00,,,0.00,weatherlink.com 1.10,2013-11-11 19:39:00,
2013-11-11 13:54:00,59.2,48.0,30.21,SW,229,4.0,9.0,67,0.00,,,0.00,weatherlink.com 1.10,2013-11-11 19:54:00,
2013-11-11 14:09:00,59.5,48.0,30.21,SW,234,12.0,12.0,67,0.00,,,0.00,weatherlink.com 1.10,2013-11-11 20:09:00,
2013-11-11 14:24:00,59.4,49.0,30.21,SW,227,8.0,12.0,69,0.00,,,0.00,weatherlink.com 1.10,2013-11-11 20:24:00,
2013-11-11 14:39:00,59.6,49.0,30.20,SSW,204,2.0,11.0,68,0.00,,,0.00,weatherlink.com 1.10,2013-11-11 20:39:00,
2013-11-11 14:54:00,60.4,50.0,30.20,SW,232,4.0,10.0,68,0.00,,,0.00,weatherlink.com 1.10,2013-11-11 20:54:00,
2013-11-11 15:09:00,60.9,49.0,30.20,WNW,297,6.0,12.0,66,0.00,,,0.00,weatherlink.com 1.10,2013-11-11 21:09:00,
2013-11-11 15:24:00,61.0,50.0,30.20,West,263,8.0,12.0,67,0.00,,,0.00,weatherlink.com 1.10,2013-11-11 21:24:00,
2013-11-11 15:39:00,60.4,50.0,30.20,WSW,244,3.0,10.0,68,0.00,,,0.00,weatherlink.com 1.10,2013-11-11 21:39:00,
2013-11-11 15:54:00,59.8,50.0,30.20,West,267,4.0,8.0,69,0.00,,,0.00,weatherlink.com 1.10,2013-11-11 21:54:00,
2013-11-11 16:09:00,59.5,50.0,30.21,WSW,254,3.0,9.0,71,0.00,,,0.00,weatherlink.com 1.10,2013-11-11 22:09:00,
2013-11-11 16:24:00,59.0,50.0,30.21,WSW,250,2.0,7.0,71,0.00,,,0.00,weatherlink.com 1.10,2013-11-11 22:24:00,
2013-11-11 16:39:00,58.8,50.0,30.21,WSW,247,3.0,5.0,72,0.00,,,0.00,weatherlink.com 1.10,2013-11-11 22:39:00,
2013-11-11 16:54:00,58.4,50.0,30.21,WSW,252,2.0,5.0,73,0.00,,,0.00,weatherlink.com 1.10,2013-11-11 22:54:00,
2013-11-11 17:09:00,58.0,50.0,30.21,WSW,243,4.0,6.0,74,0.00,,,0.00,weatherlink.com 1.10,2013-11-11 23:09:00,
2013-11-11 17:24:00,57.6,50.0,30.22,West,262,5.0,6.0,76,0.00,,,0.00,weatherlink.com 1.10,2013-11-11 23:24:00,
2013-11-11 17:39:00,57.3,50.0,30.22,West,261,5.0,9.0,77,0.00,,,0.00,weatherlink.com 1.10,2013-11-11 23:39:00,
2013-11-11 17:54:00,57.1,51.0,30.23,West,259,9.0,11.0,79,0.00,,,0.00,weatherlink.com 1.10,2013-11-11 23:54:00,
2013-11-11 18:09:00,56.2,51.0,30.24,WNW,295,7.0,12.0,83,0.00,,,0.00,weatherlink.com 1.10,2013-11-12 00:09:00,
2013-11-11 18:24:00,55.7,52.0,30.24,WNW,301,6.0,11.0,86,0.00,,,0.00,weatherlink.com 1.10,2013-11-12 00:24:00,
2013-11-11 18:39:00,55.5,52.0,30.25,West,274,5.0,8.0,87,0.00,,,0.00,weatherlink.com 1.10,2013-11-12 00:39:00,
2013-11-11 18:54:00,55.5,52.0,30.25,NW,306,7.0,9.0,88,0.00,,,0.00,weatherlink.com 1.10,2013-11-12 00:54:00,
2013-11-11 19:09:00,55.3,52.0,30.25,NW,319,4.0,17.0,88,0.00,,,0.00,weatherlink.com 1.10,2013-11-12 01:09:00,
2013-11-11 19:24:00,53.7,51.0,30.27,NNW,338,5.0,21.0,91,0.00,,,0.00,weatherlink.com 1.10,2013-11-12 01:24:00,
2013-11-11 19:40:00,48.8,46.0,30.29,North,5,9.0,24.0,91,0.01,,,0.01,weatherlink.com 1.10,2013-11-12 01:40:00,
2013-11-11 19:55:00,45.0,43.0,30.31,North,5,14.0,21.0,93,0.01,,,0.01,weatherlink.com 1.10,2013-11-12 01:55:00,
2013-11-11 20:10:00,43.5,42.0,30.32,NNE,25,16.0,25.0,94,0.02,,,0.02,weatherlink.com 1.10,2013-11-12 02:10:00,
2013-11-11 20:25:00,42.0,40.0,30.33,NNE,19,20.0,29.0,94,0.01,,,0.02,weatherlink.com 1.10,2013-11-12 02:25:00,
2013-11-11 20:40:00,41.1,40.0,30.35,NNE,28,16.0,24.0,94,0.01,,,0.02,weatherlink.com 1.10,2013-11-12 02:40:00,
2013-11-11 20:55:00,40.0,39.0,30.36,NNE,13,13.0,26.0,94,0.01,,,0.02,weatherlink.com 1.10,2013-11-12 02:55:00,
2013-11-11 21:10:00,39.6,38.0,30.38,NNE,19,15.0,21.0,94,0.00,,,0.02,weatherlink.com 1.10,2013-11-12 03:10:00,
2013-11-11 21:25:00,39.3,38.0,30.39,NE,35,12.0,23.0,94,0.00,,,0.02,weatherlink.com 1.10,2013-11-12 03:25:00,
2013-11-11 21:40:00,38.7,37.0,30.40,NNE,13,18.0,21.0,93,0.00,,,0.02,weatherlink.com 1.10,2013-11-12 03:40:00,
2013-11-11 21:55:00,38.0,36.0,30.41,NNE,31,14.0,24.0,93,0.00,,,0.02,weatherlink.com 1.10,2013-11-12 03:55:00,
2013-11-11 22:10:00,37.8,36.0,30.42,North,360,15.0,19.0,94,0.00,,,0.02,weatherlink.com 1.10,2013-11-12 04:10:00,
2013-11-11 22:25:00,37.6,36.0,30.42,NNE,13,10.0,19.0,94,0.00,,,0.02,weatherlink.com 1.10,2013-11-12 04:25:00,
2013-11-11 22:40:00,37.3,36.0,30.43,NNE,27,13.0,18.0,94,0.00,,,0.02,weatherlink.com 1.10,2013-11-12 04:40:00,
2013-11-11 23:00:00,37.0,36.0,30.44,NNE,13,16.0,19.0,94,0.00,,,0.02,weatherlink.com 1.10,2013-11-12 05:00:00,
2013-11-11 23:10:00,36.4,35.0,30.45,NNE,30,17.0,23.0,94,0.00,,,0.02,weatherlink.com 1.10,2013-11-12 05:10:00,
2013-11-11 23:25:00,36.0,34.0,30.46,NNE,27,7.0,19.0,92,0.00,,,0.02,weatherlink.com 1.10,2013-11-12 05:25:00,
2013-11-11 23:40:00,35.9,34.0,30.47,North,355,12.0,16.0,93,0.00,,,0.02,weatherlink.com 1.10,2013-11-12 05:40:00,
2013-11-11 23:55:00,34.8,33.0,30.48,NE,34,14.0,20.0,92,0.00,,,0.02,weatherlink.com 1.10,2013-11-12 05:55:00,